Fellowship, Louisiana
Current Conditions -  °F | °C
As of 1:53 PM on Friday 21 Nov 2014 (Local Time) from KESF Reporting Station
Clear Clear  
Wind Chill: 73°   Ceiling: Unl
Heat Index: 73°   Visibility: 10mi
Dew Point: 43°   Wind: 16mph
Humidity: 34%   Direction: 120°ESE
Pressure: 30.17"   Gusts: 25mph
Location:  31.6376°N, 92.2485°W
Report Text: KESF 211953Z AUTO 12014G22KT 10SM CLR 23/06 A3017 RMK AO2 PRESFR SLP215 T02280061
Loading
Personal Weather Stations






























Interactive Weather Map New forecast layout! Learn more

10-Day Weather Forecast

Advertisements
Track Severe Weather on mobile